Data for 06/17/2016

Time Sea-Level Adjusted Pressure Absolute Pressure Temperature Relative Humidity Dew Point   
(mb) (inHg) (mb) (inHg) (C) (F) (%) (C) (F)
00:05 1023 30.21 853 25.19 6 42.8 74 1.7 35.1
00:10 1024 30.24 853 25.19 6.1 43 73 1.6 34.9
00:15 1024 30.24 853 25.19 6 42.9 74 1.8 35.2
00:20 1024 30.24 853 25.19 5.9 42.7 73 1.4 34.5
00:25 1024 30.24 853 25.19 6.2 43.1 72 1.5 34.7
00:30 1024 30.24 853 25.19 6.2 43.1 72 1.5 34.8
00:35 1024 30.24 853 25.19 6.1 43.1 72 1.5 34.6
00:40 1024 30.24 853 25.19 6.1 42.9 72 1.4 34.5
00:45 1024 30.24 853 25.19 5.9 42.6 74 1.6 34.8
00:50 1024 30.24 853 25.19 5.7 42.3 73 1.2 34.2
00:55 1024 30.24 853 25.19 5.8 42.5 72 1.1 34
01:00 1024 30.24 853 25.19 5.9 42.5 72 1.3 34.3
01:05 1024 30.24 853 25.19 5.7 42.2 72 1.1 34
01:10 1024 30.24 853 25.19 5.6 42.1 72 1.1 33.9
01:15 1024 30.24 853 25.19 5.7 42.2 72 1 33.8
01:20 1024 30.24 853 25.19 5.5 41.9 73 1.1 34
01:25 1024 30.24 853 25.19 5.3 41.6 74 1.1 34
01:30 1024 30.24 853 25.19 5.2 41.3 74 1 33.8
01:35 1024 30.24 853 25.19 5.2 41.4 74 1 33.8
01:40 1024 30.24 853 25.19 5.1 41.1 75 1.1 33.9
01:45 1024 30.24 853 25.19 5 41 75 1 33.9
01:50 1024 30.24 853 25.19 4.9 40.7 76 1 33.8
01:55 1024 30.24 853 25.19 4.8 40.7 76 0.9 33.7
02:00 1024 30.24 853 25.19 4.9 40.8 75 0.9 33.6
02:05 1024 30.24 853 25.19 5.1 41.2 75 1 33.8
02:10 1024 30.24 853 25.19 4.9 40.8 76 1.1 34
02:15 1024 30.24 853 25.19 4.9 40.8 75 0.8 33.5
02:20 1024 30.24 853 25.19 5 40.9 75 0.9 33.6
02:25 1024 30.24 853 25.19 4.9 40.8 76 1 33.8
02:30 1024 30.24 853 25.19 4.8 40.6 76 0.9 33.6
02:35 1024 30.24 853 25.19 4.8 40.7 75 0.8 33.4
02:40 1024 30.24 853 25.19 4.9 40.8 75 0.8 33.5
02:45 1024 30.24 853 25.19 4.9 40.8 75 0.9 33.5
02:50 1024 30.24 853 25.19 4.7 40.5 76 0.9 33.6
02:55 1024 30.24 853 25.19 4.6 40.3 77 0.9 33.7
03:00 1024 30.24 853 25.19 4.4 39.9 79 1.1 33.9
03:05 1024 30.24 853 25.19 4.2 39.5 80 1 33.8
03:10 1024 30.24 853 25.19 4.1 39.4 80 0.9 33.7
03:15 1024 30.24 853 25.19 4.2 39.5 79 0.9 33.7
03:20 1024 30.24 853 25.19 4.1 39.5 79 0.8 33.5
03:25 1024 30.24 853 25.19 4.1 39.4 79 0.8 33.4
03:30 1024 30.24 853 25.19 4.2 39.6 78 0.8 33.4
03:35 1024 30.24 853 25.19 4.2 39.6 78 0.8 33.4
03:40 1024 30.24 853 25.19 4.3 39.7 77 0.7 33.2
03:45 1024 30.24 853 25.19 4.4 39.8 77 0.6 33.1
03:50 1024 30.24 853 25.19 4.3 39.8 77 0.6 33.1
03:55 1024 30.24 853 25.19 4.1 39.4 78 0.5 33
04:00 1024 30.24 853 25.19 4.1 39.3 77 0.5 32.8
04:05 1024 30.24 853 25.19 4 39.2 78 0.5 32.9
04:10 1024 30.24 853 25.19 4 39.1 78 0.5 32.8
04:15 1024 30.24 853 25.19 3.9 39 78 0.4 32.8
04:20 1024 30.24 853 25.19 3.8 38.9 79 0.5 32.8
04:25 1024 30.24 853 25.19 3.8 38.8 79 0.4 32.7
04:30 1024 30.24 853 25.19 3.9 39 78 0.4 32.7
04:35 1024 30.24 853 25.19 3.9 39.1 78 0.4 32.8
04:40 1024 30.24 853 25.19 3.9 39 78 0.4 32.7
04:45 1024 30.24 853 25.19 4.1 39.4 77 0.4 32.7
04:50 1024 30.24 853 25.19 4.2 39.5 76 0.4 32.7
04:55 1024 30.24 853 25.19 4.2 39.6 76 0.4 32.8
05:00 1024 30.24 853 25.19 4.3 39.7 76 0.5 32.9
05:05 1024 30.24 853 25.19 4.3 39.7 77 0.5 32.9
05:10 1024 30.24 853 25.19 4.3 39.8 76 0.5 32.8
05:15 1024 30.24 853 25.19 4.3 39.8 76 0.5 32.8
05:20 1024 30.24 853 25.19 4.3 39.7 76 0.4 32.8
05:25 1024 30.24 853 25.19 4.2 39.6 76 0.4 32.8
05:30 1024 30.24 853 25.19 4.2 39.6 76 0.4 32.8
05:35 1024 30.24 853 25.19 4.4 39.9 76 0.5 32.9
05:40 1024 30.24 853 25.19 4.6 40.2 76 0.7 33.2
05:45 1024 30.24 853 25.19 4.6 40.3 76 0.7 33.3
05:50 1024 30.24 853 25.19 4.7 40.5 76 0.8 33.5
05:55 1024 30.24 853 25.19 4.9 40.8 75 0.9 33.5
06:00 1024 30.24 854 25.22 5.1 41.1 74 0.8 33.4
06:05 1024 30.24 854 25.22 5.3 41.5 73 0.8 33.4
06:10 1024 30.24 854 25.22 5.5 41.9 72 0.9 33.5
06:15 1024 30.24 854 25.22 5.6 42.2 72 0.9 33.6
06:20 1024 30.24 854 25.22 5.8 42.4 72 1 33.9
06:25 1024 30.24 854 25.22 6 42.9 72 1.3 34.3
06:30 1025 30.27 854 25.22 6.4 43.6 70 1.4 34.5
06:35 1025 30.27 854 25.22 6.7 44.1 70 1.7 35
06:40 1025 30.27 854 25.22 7 44.6 69 1.7 35
06:45 1025 30.27 854 25.22 7.2 45 67 1.5 34.8
06:50 1025 30.27 854 25.22 7.3 45.1 66 1.4 34.5
06:55 1025 30.27 854 25.22 6.9 44.5 69 1.6 34.9
07:00 1025 30.27 854 25.22 6.9 44.4 68 1.4 34.6
07:05 1025 30.27 854 25.22 8 46.5 64 1.6 34.9
07:10 1025 30.27 854 25.22 8.9 48.1 60 1.6 34.8
07:15 1025 30.27 854 25.22 9.6 49.3 58 1.7 35
07:20 1025 30.27 854 25.22 9.5 49.2 58 1.7 35
07:25 1025 30.27 854 25.22 9.8 49.6 56 1.5 34.6
07:30 1025 30.27 854 25.22 9.8 49.6 56 1.5 34.7
07:35 1025 30.27 854 25.22 10.2 50.4 55 1.5 34.8
07:40 1025 30.27 854 25.22 10.5 50.9 54 1.7 35
07:45 1025 30.27 854 25.22 10.9 51.6 53 1.7 35
07:50 1025 30.27 854 25.22 10.8 51.4 55 2.2 35.9
07:55 1025 30.27 854 25.22 10.4 50.8 54 1.6 34.9
08:00 1025 30.27 854 25.22 10.8 51.4 53 1.7 35
08:05 1025 30.27 854 25.22 10.3 50.5 59 2.6 36.7
08:10 1025 30.27 854 25.22 10.4 50.8 55 1.9 35.5
08:15 1025 30.27 854 25.22 9.8 49.6 58 1.9 35.4
08:20 1025 30.27 854 25.22 10.8 51.4 53 1.6 34.8
08:25 1025 30.27 854 25.22 11.5 52.6 53 2.2 35.9
08:30 1025 30.27 854 25.22 11.3 52.3 54 2.4 36.3
08:35 1025 30.27 854 25.22 11.2 52.2 54 2.3 36.2
08:40 1025 30.27 854 25.22 11 51.7 54 2.1 35.9
08:45 1024 30.24 854 25.22 11.6 53 51 2 35.6
08:50 1025 30.27 854 25.22 11.9 53.4 53 2.8 37
08:55 1025 30.27 854 25.22 11.4 52.5 54 2.4 36.3
09:00 1025 30.27 854 25.22 11.8 53.2 54 2.8 37
09:05 1024 30.24 854 25.22 11.7 53.1 54 2.9 37.2
09:10 1024 30.24 854 25.22 11.8 53.2 55 3 37.4
09:15 1024 30.24 854 25.22 12.2 54 54 3.3 37.9
09:20 1024 30.24 854 25.22 12.6 54.6 49 2.3 36.2
09:25 1024 30.24 854 25.22 13 55.4 49 2.5 36.5
09:30 1024 30.24 853 25.19 13.5 56.3 47 2.5 36.6
09:35 1024 30.24 853 25.19 12.9 55.1 50 2.6 36.7
09:40 1024 30.24 853 25.19 13.2 55.7 48 2.5 36.5
09:45 1024 30.24 853 25.19 13 55.3 46 1.6 34.8
09:50 1024 30.24 853 25.19 13.3 56 46 2 35.7
09:55 1024 30.24 853 25.19 13.5 56.4 49 3 37.5
10:00 1024 30.24 853 25.19 12.5 54.5 50 2.3 36.2
10:05 1024 30.24 853 25.19 12.9 55.1 46 1.6 34.9
10:10 1024 30.24 853 25.19 13.9 56.9 43 1.4 34.6
10:15 1024 30.24 853 25.19 14 57.1 40 0.8 33.4
10:20 1024 30.24 853 25.19 13.5 56.3 41 0.6 33
10:25 1024 30.24 853 25.19 13.5 56.3 43 1.2 34.2
10:30 1024 30.24 853 25.19 13.7 56.6 42 1 33.7
10:35 1024 30.24 853 25.19 15 58.9 39 1.1 34.1
10:40 1024 30.24 853 25.19 15.3 59.6 37 0.9 33.6
10:45 1024 30.24 853 25.19 15.8 60.5 35 0.3 32.6
10:50 1024 30.24 853 25.19 15.9 60.6 36 0.8 33.5
10:55 1024 30.24 853 25.19 16 60.7 36 1 33.8
11:00 1024 30.24 853 25.19 16.5 61.8 35 1.3 34.3
11:05 1024 30.24 853 25.19 15.9 60.6 36 1.1 34
11:10 1024 30.24 853 25.19 15.9 60.7 36 1.1 33.9
11:15 1023 30.21 853 25.19 16.6 61.8 36 1.6 34.9
11:20 1023 30.21 853 25.19 17.4 63.3 34 1.5 34.7
11:25 1023 30.21 853 25.19 17 62.6 36 1.9 35.4
11:30 1023 30.21 852 25.16 16.7 62.1 37 2.1 35.7
11:35 1023 30.21 852 25.16 17 62.7 36 2.1 35.8
11:40 1023 30.21 852 25.16 17.3 63.1 37 2.5 36.4
11:45 1023 30.21 852 25.16 17.6 63.6 34 1.6 34.9
11:50 1023 30.21 852 25.16 18.1 64.7 34 2.2 35.9
11:55 1023 30.21 852 25.16 17.8 64.1 38 3.5 38.3
12:00 1023 30.21 852 25.16 17.9 64.2 35 2.2 36
12:05 1023 30.21 852 25.16 18.4 65.1 34 2.5 36.5
12:10 1023 30.21 852 25.16 18.6 65.5 36 3.5 38.3
12:15 1023 30.21 852 25.16 17.8 64 37 2.9 37.3
12:20 1023 30.21 852 25.16 17.3 63.1 37 2.6 36.7
12:25 1023 30.21 852 25.16 18.1 64.6 36 2.9 37.2
12:30 1023 30.21 852 25.16 17.6 63.7 37 3 37.4
12:35 1023 30.21 852 25.16 18.1 64.5 38 3.5 38.3
12:40 1023 30.21 852 25.16 18.6 65.4 35 2.8 37
12:45 1023 30.21 852 25.16 18.8 65.9 35 3.1 37.5
12:50 1023 30.21 852 25.16 18.1 64.6 36 3 37.5
12:55 1023 30.21 852 25.16 18.6 65.6 34 2.5 36.6
13:00 1023 30.21 852 25.16 19.6 67.2 32 2.6 36.7
13:05 1023 30.21 852 25.16 19.8 67.7 33 3.2 37.7
13:10 1023 30.21 852 25.16 18.9 65.9 32 2.1 35.8
13:15 1023 30.21 852 25.16 19.1 66.3 31 1.9 35.4
13:20 1023 30.21 852 25.16 19.6 67.3 30 1.8 35.2
13:25 1023 30.21 852 25.16 19.2 66.5 30 1.2 34.1
13:30 1023 30.21 852 25.16 18.6 65.5 31 1.2 34.2
13:35 1023 30.21 852 25.16 19.4 66.9 32 2.4 36.4
13:40 1023 30.21 852 25.16 19.9 67.9 30 2.2 35.9
13:45 1023 30.21 852 25.16 20 68.1 31 2.6 36.7
13:50 1022 30.18 852 25.16 20.6 69 31 3 37.4
13:55 1022 30.18 852 25.16 21 69.7 30 2.9 37.2
14:00 1022 30.18 852 25.16 20.9 69.6 31 3.3 37.9
14:05 1022 30.18 851 25.13 21 69.8 31 3.3 38
14:10 1022 30.18 851 25.13 21 69.7 29 2.6 36.7
14:15 1022 30.18 851 25.13 20.1 68.2 31 2.6 36.6
14:20 1022 30.18 851 25.13 20 68 31 2.5 36.5
14:25 1022 30.18 851 25.13 19.5 67.1 31 2.1 35.7
14:30 1022 30.18 851 25.13 20.7 69.2 29 2.4 36.3
14:35 1022 30.18 851 25.13 20.8 69.4 31 3.1 37.5
14:40 1022 30.18 851 25.13 20.2 68.3 30 2.3 36.1
14:45 1022 30.18 851 25.13 20 68 28 1.2 34.2
14:50 1022 30.18 851 25.13 20.5 68.8 26 0.4 32.7
14:55 1022 30.18 851 25.13 20.7 69.3 27 1 33.8
15:00 1022 30.18 851 25.13 21.6 70.8 28 2.3 36.2
15:05 1022 30.18 851 25.13 21.2 70.2 27 1.6 34.9
15:10 1022 30.18 851 25.13 21.9 71.3 25 1.4 34.5
15:15 1022 30.18 851 25.13 22.7 72.9 24 1.3 34.3
15:20 1022 30.18 851 25.13 22.4 72.3 25 1.8 35.2
15:25 1022 30.18 851 25.13 22.1 71.8 26 2.1 35.9
15:30 1022 30.18 851 25.13 21.4 70.5 27 1.6 34.8
15:35 1021 30.15 851 25.13 21.4 70.5 27 1.8 35.3
15:40 1021 30.15 851 25.13 21.5 70.6 26 1.4 34.5
15:45 1021 30.15 851 25.13 21.8 71.3 26 1.8 35.2
15:50 1021 30.15 850 25.1 21.4 70.4 27 1.8 35.3
15:55 1021 30.15 850 25.1 21.5 70.7 26 1.6 34.9
16:00 1021 30.15 850 25.1 21.5 70.7 27 1.8 35.2
16:05 1021 30.15 850 25.1 21.4 70.4 27 1.5 34.8
16:10 1021 30.15 850 25.1 21.6 70.9 26 1.5 34.8
16:15 1021 30.15 850 25.1 21.4 70.4 27 1.6 34.9
16:20 1021 30.15 850 25.1 22.1 71.8 25 1.2 34.2
16:25 1021 30.15 850 25.1 22.3 72.1 25 1.6 34.9
16:30 1021 30.15 850 25.1 22 71.5 26 1.8 35.2
16:35 1021 30.15 850 25.1 21.7 71.1 27 2 35.6
16:40 1021 30.15 850 25.1 21.5 70.7 26 1.3 34.4
16:45 1021 30.15 850 25.1 21.7 71.1 27 2 35.6
16:50 1021 30.15 850 25.1 21.4 70.5 27 2 35.5
16:55 1021 30.15 850 25.1 21.9 71.4 24 0.3 32.6
17:00 1021 30.15 850 25.1 21.9 71.3 23 -0.2 31.6
17:05 1021 30.15 850 25.1 21.4 70.6 23 -0.6 30.9
17:10 1021 30.15 850 25.1 21.4 70.5 24 0.1 32.1
17:15 1021 30.15 850 25.1 21.4 70.6 23 -0.4 31.3
17:20 1021 30.15 850 25.1 21.3 70.3 24 0.3 32.6
17:25 1021 30.15 850 25.1 21.3 70.3 24 -0.2 31.6
17:30 1021 30.15 850 25.1 21.2 70.1 24 0.2 32.4
17:35 1021 30.15 850 25.1 21.1 70 24 -0 32
17:40 1021 30.15 850 25.1 20.9 69.7 25 0.5 32.9
17:45 1021 30.15 850 25.1 21.2 70.2 24 0.2 32.4
17:50 1021 30.15 850 25.1 21.1 69.9 24 0 32.1
17:55 1021 30.15 850 25.1 21 69.8 24 0.1 32.2
18:00 1021 30.15 850 25.1 21.2 70.2 24 0.2 32.3
18:05 1021 30.15 850 25.1 21.1 70 26 0.8 33.5
18:10 1021 30.15 850 25.1 20.8 69.4 26 1 33.8
18:15 1021 30.15 850 25.1 20.7 69.3 27 1.5 34.6
18:20 1021 30.15 850 25.1 20.5 68.9 28 1.6 35
18:25 1021 30.15 850 25.1 20.5 68.9 29 2 35.5
18:30 1021 30.15 850 25.1 20.4 68.6 29 1.8 35.3
18:35 1021 30.15 850 25.1 20.2 68.4 29 1.9 35.3
18:40 1021 30.15 850 25.1 20.2 68.4 30 2.1 35.8
18:45 1021 30.15 850 25.1 19.9 67.9 30 2.2 35.9
18:50 1021 30.15 850 25.1 19.6 67.2 31 2.1 35.8
18:55 1021 30.15 850 25.1 19.8 67.6 32 2.6 36.6
19:00 1021 30.15 850 25.1 20 67.9 31 2.5 36.6
19:05 1021 30.15 850 25.1 20 68 32 2.8 37.1
19:10 1021 30.15 850 25.1 19.8 67.7 32 2.7 36.9
19:15 1021 30.15 850 25.1 19.7 67.5 31 2.4 36.4
19:20 1021 30.15 850 25.1 19.7 67.4 32 2.8 37
19:25 1021 30.15 850 25.1 19.6 67.3 33 2.9 37.2
19:30 1021 30.15 850 25.1 19.5 67 33 3 37.4
19:35 1021 30.15 850 25.1 19.3 66.8 34 3.1 37.5
19:40 1021 30.15 850 25.1 19.2 66.5 34 3 37.3
19:45 1021 30.15 850 25.1 19 66.2 34 3.1 37.5
19:50 1021 30.15 850 25.1 18.8 65.9 35 3.2 37.7
19:55 1021 30.15 850 25.1 18.7 65.6 36 3.3 37.9
20:00 1021 30.15 850 25.1 18.5 65.2 36 3.4 38
20:05 1021 30.15 850 25.1 18.3 64.9 36 3.1 37.5
20:10 1021 30.15 850 25.1 18.2 64.7 37 3.3 37.9
20:15 1021 30.15 850 25.1 18 64.4 37 3.3 38
20:20 1021 30.15 850 25.1 18 64.3 37 3.2 37.8
20:25 1021 30.15 850 25.1 17.8 64.1 37 3.2 37.8
20:30 1021 30.15 850 25.1 17.8 64 38 3.3 37.9
20:35 1021 30.15 850 25.1 17.7 63.8 38 3.3 37.9
20:40 1021 30.15 850 25.1 17.6 63.8 38 3.2 37.8
20:45 1021 30.15 850 25.1 17.6 63.6 38 3.2 37.8
20:50 1021 30.15 850 25.1 17.5 63.5 39 3.5 38.3
20:55 1021 30.15 850 25.1 17.3 63.2 39 3.3 38
21:00 1021 30.15 850 25.1 17.2 63 39 3.3 37.9
21:05 1021 30.15 850 25.1 17.3 63.1 38 2.9 37.3
21:10 1021 30.15 850 25.1 17.3 63.2 38 2.8 37.1
21:15 1021 30.15 850 25.1 17.4 63.2 37 2.7 36.8
21:20 1021 30.15 850 25.1 17.3 63.1 37 2.5 36.6
21:25 1021 30.15 850 25.1 17.3 63.1 37 2.6 36.8
21:30 1021 30.15 851 25.13 17.3 63.1 36 2.3 36.2
21:35 1021 30.15 851 25.13 17.4 63.3 36 2.2 35.9
21:40 1021 30.15 851 25.13 17.4 63.3 36 2.4 36.3
21:45 1021 30.15 851 25.13 17.3 63.1 36 2.2 36
21:50 1021 30.15 851 25.13 17.2 63 36 2 35.5
21:55 1022 30.18 851 25.13 17.2 62.9 36 2.2 36
22:00 1022 30.18 851 25.13 17.1 62.7 36 2.2 35.9
22:05 1022 30.18 851 25.13 17 62.6 36 2 35.6
22:10 1021 30.15 851 25.13 17 62.5 36 2 35.5
22:15 1021 30.15 851 25.13 16.8 62.3 36 1.9 35.3
22:20 1021 30.15 851 25.13 16.8 62.2 37 2 35.5
22:25 1021 30.15 851 25.13 16.6 61.8 37 1.8 35.3
22:30 1021 30.15 850 25.1 16.6 61.8 36 1.7 35.1
22:35 1021 30.15 850 25.1 16.5 61.8 36 1.7 35.1
22:40 1021 30.15 850 25.1 16.6 61.9 36 1.6 34.9
22:45 1021 30.15 850 25.1 16.7 62 36 1.6 34.9
22:50 1021 30.15 850 25.1 16.6 61.8 37 1.8 35.2
22:55 1021 30.15 850 25.1 16.4 61.5 37 1.8 35.2
23:00 1021 30.15 850 25.1 16.4 61.6 37 1.8 35.2
23:05 1021 30.15 850 25.1 16.4 61.6 37 2 35.6
23:10 1021 30.15 850 25.1 16.4 61.5 37 1.9 35.4
23:15 1021 30.15 850 25.1 16.4 61.6 38 2.2 36
23:20 1021 30.15 850 25.1 16.3 61.3 38 2.2 35.9
23:25 1021 30.15 850 25.1 16.3 61.3 39 2.3 36.2
23:30 1021 30.15 850 25.1 16.3 61.4 39 2.3 36.2
23:35 1021 30.15 850 25.1 16.3 61.3 39 2.6 36.6
23:40 1021 30.15 850 25.1 16.1 60.9 40 2.6 36.7
23:45 1021 30.15 850 25.1 16 60.8 40 2.5 36.6
23:50 1021 30.15 850 25.1 16 60.7 41 2.8 37
23:55 1021 30.15 850 25.1 15.8 60.5 42 2.9 37.2
24:00 1021 30.15 850 25.1 15.7 60.2 42 2.8 37